sensor_id;sensor_type;location;lat;lon;timestamp;pressure;altitude;pressure_sealevel;temperature;humidity
35647;BME280;28680;45.642;13.756;2023-02-19T00:01:30;102309.88;;;8.68;100.00
35647;BME280;28680;45.642;13.756;2023-02-19T00:04:05;102313.41;;;8.67;100.00
35647;BME280;28680;45.642;13.756;2023-02-19T00:06:34;102305.59;;;8.66;100.00
35647;BME280;28680;45.642;13.756;2023-02-19T00:09:00;102311.84;;;8.63;100.00
35647;BME280;28680;45.642;13.756;2023-02-19T00:11:30;102308.66;;;8.56;100.00
35647;BME280;28680;45.642;13.756;2023-02-19T00:13:58;102307.44;;;8.64;100.00
35647;BME280;28680;45.642;13.756;2023-02-19T00:16:28;102302.97;;;8.47;100.00
35647;BME280;28680;45.642;13.756;2023-02-19T00:18:55;102311.63;;;8.49;100.00
35647;BME280;28680;45.642;13.756;2023-02-19T00:21:23;102316.44;;;8.58;100.00
35647;BME280;28680;45.642;13.756;2023-02-19T00:23:51;102306.41;;;8.49;100.00
35647;BME280;28680;45.642;13.756;2023-02-19T00:26:17;102315.88;;;8.51;100.00
35647;BME280;28680;45.642;13.756;2023-02-19T00:28:43;102309.69;;;8.52;100.00
35647;BME280;28680;45.642;13.756;2023-02-19T00:31:21;102314.16;;;8.50;100.00
35647;BME280;28680;45.642;13.756;2023-02-19T00:33:50;102304.69;;;8.48;100.00
35647;BME280;28680;45.642;13.756;2023-02-19T00:36:17;102310.63;;;8.51;100.00
35647;BME280;28680;45.642;13.756;2023-02-19T00:38:43;102320.69;;;8.40;100.00
35647;BME280;28680;45.642;13.756;2023-02-19T00:41:12;102311.75;;;8.46;100.00
35647;BME280;28680;45.642;13.756;2023-02-19T00:44:05;102304.75;;;8.46;100.00
35647;BME280;28680;45.642;13.756;2023-02-19T00:46:41;102309.06;;;8.47;100.00
35647;BME280;28680;45.642;13.756;2023-02-19T00:49:12;102294.00;;;8.52;100.00
35647;BME280;28680;45.642;13.756;2023-02-19T00:51:39;102295.84;;;8.50;100.00
35647;BME280;28680;45.642;13.756;2023-02-19T00:54:05;102294.09;;;8.51;100.00
35647;BME280;28680;45.642;13.756;2023-02-19T00:56:31;102291.53;;;8.49;100.00
35647;BME280;28680;45.642;13.756;2023-02-19T00:58:57;102289.19;;;8.43;100.00
35647;BME280;28680;45.642;13.756;2023-02-19T01:01:23;102288.97;;;8.48;100.00
35647;BME280;28680;45.642;13.756;2023-02-19T01:03:49;102284.59;;;8.48;100.00
35647;BME280;28680;45.642;13.756;2023-02-19T01:06:17;102276.81;;;8.47;100.00
35647;BME280;28680;45.642;13.756;2023-02-19T01:08:44;102284.59;;;8.48;100.00
35647;BME280;28680;45.642;13.756;2023-02-19T01:11:10;102279.00;;;8.35;100.00
35647;BME280;28680;45.642;13.756;2023-02-19T01:13:37;102276.28;;;8.38;100.00
35647;BME280;28680;45.642;13.756;2023-02-19T01:16:21;102268.03;;;8.48;100.00
35647;BME280;28680;45.642;13.756;2023-02-19T01:18:49;102269.16;;;8.42;100.00
35647;BME280;28680;45.642;13.756;2023-02-19T01:21:21;102260.06;;;8.30;100.00
35647;BME280;28680;45.642;13.756;2023-02-19T01:23:52;102261.31;;;8.42;100.00
35647;BME280;28680;45.642;13.756;2023-02-19T01:26:22;102257.19;;;8.36;100.00
35647;BME280;28680;45.642;13.756;2023-02-19T01:28:48;102254.50;;;8.38;100.00
35647;BME280;28680;45.642;13.756;2023-02-19T01:31:21;102256.97;;;8.41;100.00
35647;BME280;28680;45.642;13.756;2023-02-19T01:33:50;102243.03;;;8.40;100.00
35647;BME280;28680;45.642;13.756;2023-02-19T01:36:17;102243.72;;;8.46;100.00
35647;BME280;28680;45.642;13.756;2023-02-19T01:38:44;102249.66;;;8.49;100.00
35647;BME280;28680;45.642;13.756;2023-02-19T01:41:14;102231.41;;;8.48;100.00
35647;BME280;28680;45.642;13.756;2023-02-19T01:46:41;102237.34;;;8.51;100.00
35647;BME280;28680;45.642;13.756;2023-02-19T01:49:20;102221.72;;;8.50;100.00
35647;BME280;28680;45.642;13.756;2023-02-19T01:51:59;102223.34;;;8.52;100.00
35647;BME280;28680;45.642;13.756;2023-02-19T01:54:31;102212.03;;;8.52;100.00
35647;BME280;28680;45.642;13.756;2023-02-19T01:57:03;102205.72;;;8.56;100.00
35647;BME280;28680;45.642;13.756;2023-02-19T01:59:31;102206.09;;;8.48;100.00
35647;BME280;28680;45.642;13.756;2023-02-19T02:01:58;102211.19;;;8.51;100.00
35647;BME280;28680;45.642;13.756;2023-02-19T02:04:24;102211.69;;;8.59;100.00
35647;BME280;28680;45.642;13.756;2023-02-19T02:06:56;102201.28;;;8.58;100.00
35647;BME280;28680;45.642;13.756;2023-02-19T02:09:29;102204.19;;;8.52;100.00
35647;BME280;28680;45.642;13.756;2023-02-19T02:12:14;102199.94;;;8.49;100.00
35647;BME280;28680;45.642;13.756;2023-02-19T02:14:44;102207.34;;;8.39;100.00
35647;BME280;28680;45.642;13.756;2023-02-19T02:17:29;102205.03;;;8.52;100.00
35647;BME280;28680;45.642;13.756;2023-02-19T02:31:13;102201.56;;;8.52;100.00
35647;BME280;28680;45.642;13.756;2023-02-19T02:33:56;102201.44;;;8.55;100.00
35647;BME280;28680;45.642;13.756;2023-02-19T02:36:41;102189.06;;;8.58;100.00
35647;BME280;28680;45.642;13.756;2023-02-19T02:39:13;102188.47;;;8.52;100.00
35647;BME280;28680;45.642;13.756;2023-02-19T02:41:48;102184.97;;;8.53;100.00
35647;BME280;28680;45.642;13.756;2023-02-19T02:44:35;102186.56;;;8.55;100.00
35647;BME280;28680;45.642;13.756;2023-02-19T02:47:04;102186.56;;;8.55;100.00
35647;BME280;28680;45.642;13.756;2023-02-19T02:49:31;102180.19;;;8.61;100.00
35647;BME280;28680;45.642;13.756;2023-02-19T02:52:18;102176.09;;;8.55;100.00
35647;BME280;28680;45.642;13.756;2023-02-19T02:55:08;102168.31;;;8.54;100.00
35647;BME280;28680;45.642;13.756;2023-02-19T02:57:35;102167.34;;;8.56;100.00
35647;BME280;28680;45.642;13.756;2023-02-19T03:00:02;102164.78;;;8.55;100.00
35647;BME280;28680;45.642;13.756;2023-02-19T03:02:29;102163.25;;;8.51;100.00
35647;BME280;28680;45.642;13.756;2023-02-19T03:10:59;102158.00;;;8.51;100.00
35647;BME280;28680;45.642;13.756;2023-02-19T03:13:55;102152.47;;;8.57;100.00
35647;BME280;28680;45.642;13.756;2023-02-19T03:16:43;102146.94;;;8.63;100.00
35647;BME280;28680;45.642;13.756;2023-02-19T03:19:30;102143.84;;;8.55;100.00
35647;BME280;28680;45.642;13.756;2023-02-19T03:22:08;102153.25;;;8.59;100.00
35647;BME280;28680;45.642;13.756;2023-02-19T03:25:00;102152.84;;;8.49;100.00
35647;BME280;28680;45.642;13.756;2023-02-19T03:27:47;102133.75;;;8.47;100.00
35647;BME280;28680;45.642;13.756;2023-02-19T03:30:23;102139.97;;;8.45;100.00
35647;BME280;28680;45.642;13.756;2023-02-19T03:33:23;102139.81;;;8.48;100.00
35647;BME280;28680;45.642;13.756;2023-02-19T03:36:01;102140.47;;;8.53;100.00
35647;BME280;28680;45.642;13.756;2023-02-19T03:38:43;102129.94;;;8.54;100.00
35647;BME280;28680;45.642;13.756;2023-02-19T03:55:17;102121.66;;;8.45;100.00
35647;BME280;28680;45.642;13.756;2023-02-19T04:03:45;102125.31;;;8.40;100.00
35647;BME280;28680;45.642;13.756;2023-02-19T04:06:25;102126.03;;;8.44;100.00
35647;BME280;28680;45.642;13.756;2023-02-19T04:08:55;102133.75;;;8.47;100.00
35647;BME280;28680;45.642;13.756;2023-02-19T04:11:24;102130.38;;;8.45;100.00
35647;BME280;28680;45.642;13.756;2023-02-19T04:14:10;102126.81;;;8.46;100.00
35647;BME280;28680;45.642;13.756;2023-02-19T04:16:40;102120.75;;;8.46;100.00
35647;BME280;28680;45.642;13.756;2023-02-19T04:19:17;102127.66;;;8.47;100.00
35647;BME280;28680;45.642;13.756;2023-02-19T04:21:46;102123.44;;;8.44;100.00
35647;BME280;28680;45.642;13.756;2023-02-19T04:24:20;102126.88;;;8.45;100.00
35647;BME280;28680;45.642;13.756;2023-02-19T04:26:47;102129.13;;;8.52;100.00
35647;BME280;28680;45.642;13.756;2023-02-19T04:29:13;102119.72;;;8.48;100.00
35647;BME280;28680;45.642;13.756;2023-02-19T04:31:39;102120.69;;;8.47;100.00
35647;BME280;28680;45.642;13.756;2023-02-19T04:34:05;102110.97;;;8.49;100.00
35647;BME280;28680;45.642;13.756;2023-02-19T04:36:32;102108.56;;;8.45;100.00
35647;BME280;28680;45.642;13.756;2023-02-19T04:38:58;102103.19;;;8.48;100.00
35647;BME280;28680;45.642;13.756;2023-02-19T04:41:24;102102.97;;;8.52;100.00
35647;BME280;28680;45.642;13.756;2023-02-19T04:43:51;102106.09;;;8.61;100.00
35647;BME280;28680;45.642;13.756;2023-02-19T04:46:17;102101.81;;;8.58;100.00
35647;BME280;28680;45.642;13.756;2023-02-19T04:48:43;102104.31;;;8.61;100.00
35647;BME280;28680;45.642;13.756;2023-02-19T04:51:09;102107.75;;;8.62;100.00
35647;BME280;28680;45.642;13.756;2023-02-19T04:53:36;102101.63;;;8.63;100.00
35647;BME280;28680;45.642;13.756;2023-02-19T04:56:11;102094.47;;;8.66;100.00
35647;BME280;28680;45.642;13.756;2023-02-19T04:58:37;102103.22;;;8.65;100.00
35647;BME280;28680;45.642;13.756;2023-02-19T05:01:04;102093.06;;;8.59;100.00
35647;BME280;28680;45.642;13.756;2023-02-19T05:03:31;102088.13;;;8.53;100.00
35647;BME280;28680;45.642;13.756;2023-02-19T05:05:56;102095.97;;;8.53;100.00
35647;BME280;28680;45.642;13.756;2023-02-19T05:08:22;102095.03;;;8.54;100.00
35647;BME280;28680;45.642;13.756;2023-02-19T05:10:48;102094.34;;;8.50;100.00
35647;BME280;28680;45.642;13.756;2023-02-19T05:13:14;102089.03;;;8.52;100.00
35647;BME280;28680;45.642;13.756;2023-02-19T05:15:40;102082.97;;;8.51;100.00
35647;BME280;28680;45.642;13.756;2023-02-19T05:18:05;102090.81;;;8.51;100.00
35647;BME280;28680;45.642;13.756;2023-02-19T05:20:31;102091.66;;;8.52;100.00
35647;BME280;28680;45.642;13.756;2023-02-19T05:22:57;102092.34;;;8.55;100.00
35647;BME280;28680;45.642;13.756;2023-02-19T05:25:23;102097.59;;;8.55;100.00
35647;BME280;28680;45.642;13.756;2023-02-19T05:27:49;102098.72;;;8.50;100.00
35647;BME280;28680;45.642;13.756;2023-02-19T05:30:15;102096.06;;;8.51;100.00
35647;BME280;28680;45.642;13.756;2023-02-19T05:32:40;102105.69;;;8.51;100.00
35647;BME280;28680;45.642;13.756;2023-02-19T05:35:06;102095.03;;;8.54;100.00
35647;BME280;28680;45.642;13.756;2023-02-19T05:37:32;102092.50;;;8.52;100.00
35647;BME280;28680;45.642;13.756;2023-02-19T05:39:58;102090.81;;;8.51;100.00
35647;BME280;28680;45.642;13.756;2023-02-19T05:42:24;102089.81;;;8.54;100.00
35647;BME280;28680;45.642;13.756;2023-02-19T05:44:50;102090.22;;;8.64;100.00
35647;BME280;28680;45.642;13.756;2023-02-19T05:47:16;102083.94;;;8.68;100.00
35647;BME280;28680;45.642;13.756;2023-02-19T05:49:42;102082.47;;;8.62;100.00
35647;BME280;28680;45.642;13.756;2023-02-19T05:52:07;102085.84;;;8.64;100.00
35647;BME280;28680;45.642;13.756;2023-02-19T05:54:33;102091.09;;;8.64;100.00
35647;BME280;28680;45.642;13.756;2023-02-19T05:56:59;102084.31;;;8.60;100.00
35647;BME280;28680;45.642;13.756;2023-02-19T05:59:26;102080.59;;;8.64;100.00
35647;BME280;28680;45.642;13.756;2023-02-19T06:01:53;102083.44;;;8.59;100.00
35647;BME280;28680;45.642;13.756;2023-02-19T06:04:19;102085.66;;;8.50;100.00
35647;BME280;28680;45.642;13.756;2023-02-19T06:06:46;102073.41;;;8.50;100.00
35647;BME280;28680;45.642;13.756;2023-02-19T06:09:13;102075.94;;;8.52;100.00
35647;BME280;28680;45.642;13.756;2023-02-19T06:11:39;102082.25;;;8.48;100.00
35647;BME280;28680;45.642;13.756;2023-02-19T06:14:05;102094.19;;;8.53;100.00
35647;BME280;28680;45.642;13.756;2023-02-19T06:16:31;102095.91;;;8.54;100.00
35647;BME280;28680;45.642;13.756;2023-02-19T06:19:01;102090.59;;;8.56;100.00
35647;BME280;28680;45.642;13.756;2023-02-19T06:21:28;102091.53;;;8.55;100.00
35647;BME280;28680;45.642;13.756;2023-02-19T06:23:54;102086.91;;;8.60;100.00
35647;BME280;28680;45.642;13.756;2023-02-19T06:26:23;102090.91;;;8.67;100.00
35647;BME280;28680;45.642;13.756;2023-02-19T06:28:51;102089.84;;;8.71;100.00
35647;BME280;28680;45.642;13.756;2023-02-19T06:31:19;102089.63;;;8.76;100.00
35647;BME280;28680;45.642;13.756;2023-02-19T06:33:45;102097.41;;;8.77;100.00
35647;BME280;28680;45.642;13.756;2023-02-19T06:36:15;102100.16;;;8.74;100.00
35647;BME280;28680;45.642;13.756;2023-02-19T06:38:42;102098.69;;;8.69;100.00
35647;BME280;28680;45.642;13.756;2023-02-19T06:41:09;102107.00;;;8.77;100.00
35647;BME280;28680;45.642;13.756;2023-02-19T06:43:35;102105.25;;;8.77;100.00
35647;BME280;28680;45.642;13.756;2023-02-19T06:46:03;102104.19;;;8.82;100.00
35647;BME280;28680;45.642;13.756;2023-02-19T06:48:31;102090.97;;;8.66;100.00
35647;BME280;28680;45.642;13.756;2023-02-19T06:50:57;102090.72;;;8.72;100.00
35647;BME280;28680;45.642;13.756;2023-02-19T06:53:23;102095.94;;;8.72;100.00
35647;BME280;28680;45.642;13.756;2023-02-19T06:58:22;102098.50;;;8.73;100.00
35647;BME280;28680;45.642;13.756;2023-02-19T07:00:48;102096.84;;;8.71;100.00
35647;BME280;28680;45.642;13.756;2023-02-19T07:03:14;102111.00;;;8.67;100.00
35647;BME280;28680;45.642;13.756;2023-02-19T07:05:39;102109.88;;;8.72;100.00
35647;BME280;28680;45.642;13.756;2023-02-19T07:08:05;102106.94;;;8.78;100.00
35647;BME280;28680;45.642;13.756;2023-02-19T07:10:31;102089.50;;;8.79;100.00
35647;BME280;28680;45.642;13.756;2023-02-19T07:12:57;102094.94;;;8.74;100.00
35647;BME280;28680;45.642;13.756;2023-02-19T07:15:22;102100.16;;;8.74;100.00
35647;BME280;28680;45.642;13.756;2023-02-19T07:17:48;102101.78;;;8.77;100.00
35647;BME280;28680;45.642;13.756;2023-02-19T07:20:14;102105.25;;;8.77;100.00
35647;BME280;28680;45.642;13.756;2023-02-19T07:22:40;102098.94;;;8.82;100.00
35647;BME280;28680;45.642;13.756;2023-02-19T07:25:06;102094.34;;;8.87;100.00
35647;BME280;28680;45.642;13.756;2023-02-19T07:27:32;102094.34;;;8.87;100.00
35647;BME280;28680;45.642;13.756;2023-02-19T07:29:58;102111.72;;;8.88;100.00
35647;BME280;28680;45.642;13.756;2023-02-19T07:32:23;102114.22;;;8.91;100.00
35647;BME280;28680;45.642;13.756;2023-02-19T07:34:49;102109.81;;;8.91;100.00
35647;BME280;28680;45.642;13.756;2023-02-19T07:37:15;102114.34;;;8.88;100.00
35647;BME280;28680;45.642;13.756;2023-02-19T07:39:41;102127.13;;;8.94;100.00
35647;BME280;28680;45.642;13.756;2023-02-19T07:42:07;102145.19;;;9.00;100.00
35647;BME280;28680;45.642;13.756;2023-02-19T07:44:33;102135.31;;;9.05;100.00
35647;BME280;28680;45.642;13.756;2023-02-19T07:46:59;102138.88;;;9.04;100.00
35647;BME280;28680;45.642;13.756;2023-02-19T07:49:24;102122.22;;;9.05;100.00
35647;BME280;28680;45.642;13.756;2023-02-19T07:51:50;102134.31;;;9.08;100.00
35647;BME280;28680;45.642;13.756;2023-02-19T07:54:16;102127.31;;;9.08;100.00
35647;BME280;28680;45.642;13.756;2023-02-19T07:56:42;102123.69;;;9.11;100.00
35647;BME280;28680;45.642;13.756;2023-02-19T07:59:08;102121.75;;;9.14;100.00
35647;BME280;28680;45.642;13.756;2023-02-19T08:01:34;102131.16;;;9.18;100.00
35647;BME280;28680;45.642;13.756;2023-02-19T08:04:19;102132.84;;;9.20;100.00
35647;BME280;28680;45.642;13.756;2023-02-19T08:06:44;102142.25;;;9.24;100.00
35647;BME280;28680;45.642;13.756;2023-02-19T08:09:10;102134.56;;;9.21;100.00
35647;BME280;28680;45.642;13.756;2023-02-19T08:11:36;102135.94;;;9.28;100.00
35647;BME280;28680;45.642;13.756;2023-02-19T08:14:25;102129.41;;;9.19;100.00
35647;BME280;28680;45.642;13.756;2023-02-19T08:16:52;102132.09;;;9.17;100.00
35647;BME280;28680;45.642;13.756;2023-02-19T08:19:19;102146.09;;;9.16;100.00
35647;BME280;28680;45.642;13.756;2023-02-19T08:21:45;102140.09;;;9.14;100.00
35647;BME280;28680;45.642;13.756;2023-02-19T08:24:11;102149.47;;;9.18;100.00
35647;BME280;28680;45.642;13.756;2023-02-19T08:26:37;102141.47;;;9.22;100.00
35647;BME280;28680;45.642;13.756;2023-02-19T08:29:04;102139.50;;;9.27;100.00
35647;BME280;28680;45.642;13.756;2023-02-19T08:31:32;102135.84;;;9.29;100.00
35647;BME280;28680;45.642;13.756;2023-02-19T08:33:58;102131.47;;;9.30;100.00
35647;BME280;28680;45.642;13.756;2023-02-19T08:36:24;102132.63;;;9.24;100.00
35647;BME280;28680;45.642;13.756;2023-02-19T08:38:51;102123.69;;;9.11;100.00
35647;BME280;28680;45.642;13.756;2023-02-19T08:41:17;102119.19;;;9.13;100.00
35647;BME280;28680;45.642;13.756;2023-02-19T08:43:42;102119.06;;;9.16;100.00
35647;BME280;28680;45.642;13.756;2023-02-19T08:46:10;102124.22;;;9.17;100.00
35647;BME280;28680;45.642;13.756;2023-02-19T08:48:36;102128.31;;;9.23;100.00
35647;BME280;28680;45.642;13.756;2023-02-19T08:51:06;102125.38;;;9.29;100.00
35647;BME280;28680;45.642;13.756;2023-02-19T08:53:35;102131.16;;;9.36;100.00
35647;BME280;28680;45.642;13.756;2023-02-19T08:56:10;102120.50;;;9.39;100.00
35647;BME280;28680;45.642;13.756;2023-02-19T08:58:37;102114.34;;;9.40;100.00
35647;BME280;28680;45.642;13.756;2023-02-19T09:01:11;102124.75;;;9.42;100.00
35647;BME280;28680;45.642;13.756;2023-02-19T09:03:38;102122.72;;;9.47;100.00
35647;BME280;28680;45.642;13.756;2023-02-19T09:06:04;102130.59;;;9.47;100.00
35647;BME280;28680;45.642;13.756;2023-02-19T09:08:30;102120.28;;;9.44;100.00
35647;BME280;28680;45.642;13.756;2023-02-19T09:11:00;102124.50;;;9.46;100.00
35647;BME280;28680;45.642;13.756;2023-02-19T09:13:28;102119.06;;;9.51;100.00
35647;BME280;28680;45.642;13.756;2023-02-19T09:15:54;102124.94;;;9.54;100.00
35647;BME280;28680;45.642;13.756;2023-02-19T09:18:22;102120.81;;;9.50;100.00
35647;BME280;28680;45.642;13.756;2023-02-19T09:20:49;102110.94;;;9.55;100.00
35647;BME280;28680;45.642;13.756;2023-02-19T09:23:15;102119.41;;;9.61;100.00
35647;BME280;28680;45.642;13.756;2023-02-19T09:25:41;102113.91;;;9.65;100.00
35647;BME280;28680;45.642;13.756;2023-02-19T09:28:07;102106.31;;;9.61;100.00
35647;BME280;28680;45.642;13.756;2023-02-19T09:30:33;102097.28;;;9.66;100.00
35647;BME280;28680;45.642;13.756;2023-02-19T09:32:59;102100.72;;;9.67;100.00
35647;BME280;28680;45.642;13.756;2023-02-19T09:35:24;102100.59;;;9.70;100.00
35647;BME280;28680;45.642;13.756;2023-02-19T09:37:50;102099.72;;;9.69;100.00
35647;BME280;28680;45.642;13.756;2023-02-19T09:40:16;102110.13;;;9.71;100.00
35647;BME280;28680;45.642;13.756;2023-02-19T09:42:48;102111.59;;;9.76;100.00
35647;BME280;28680;45.642;13.756;2023-02-19T09:45:22;102107.09;;;9.79;100.00
35647;BME280;28680;45.642;13.756;2023-02-19T09:47:53;102095.63;;;9.81;100.00
35647;BME280;28680;45.642;13.756;2023-02-19T09:50:31;102110.56;;;9.79;100.00
35647;BME280;28680;45.642;13.756;2023-02-19T09:53:02;102101.03;;;9.78;100.00
35647;BME280;28680;45.642;13.756;2023-02-19T09:55:38;102094.59;;;9.84;100.00
35647;BME280;28680;45.642;13.756;2023-02-19T09:58:33;102087.84;;;9.80;100.00
35647;BME280;28680;45.642;13.756;2023-02-19T10:01:02;102095.78;;;9.78;100.00
35647;BME280;28680;45.642;13.756;2023-02-19T10:03:38;102098.31;;;9.80;100.00
35647;BME280;28680;45.642;13.756;2023-02-19T10:08:39;102106.59;;;9.72;100.00
35647;BME280;28680;45.642;13.756;2023-02-19T10:11:06;102100.41;;;9.73;100.00
35647;BME280;28680;45.642;13.756;2023-02-19T10:13:53;102104.88;;;9.71;100.00
35647;BME280;28680;45.642;13.756;2023-02-19T10:16:26;102093.78;;;9.66;100.00
35647;BME280;28680;45.642;13.756;2023-02-19T10:18:52;102099.97;;;9.65;100.00
35647;BME280;28680;45.642;13.756;2023-02-19T10:21:24;102094.72;;;9.65;100.00
35647;BME280;28680;45.642;13.756;2023-02-19T10:23:59;102089.34;;;9.68;100.00
35647;BME280;28680;45.642;13.756;2023-02-19T10:26:27;102097.09;;;9.69;100.00
35647;BME280;28680;45.642;13.756;2023-02-19T10:28:53;102092.53;;;9.73;100.00
35647;BME280;28680;45.642;13.756;2023-02-19T10:31:24;102090.88;;;9.72;100.00
35647;BME280;28680;45.642;13.756;2023-02-19T10:33:56;102088.25;;;9.72;100.00
35647;BME280;28680;45.642;13.756;2023-02-19T10:36:40;102084.69;;;9.73;100.00
35647;BME280;28680;45.642;13.756;2023-02-19T10:41:51;102079.84;;;9.65;100.00
35647;BME280;28680;45.642;13.756;2023-02-19T10:44:26;102083.22;;;9.67;100.00
35647;BME280;28680;45.642;13.756;2023-02-19T10:46:56;102080.44;;;9.70;100.00
35647;BME280;28680;45.642;13.756;2023-02-19T10:49:25;102082.31;;;9.68;100.00
35647;BME280;28680;45.642;13.756;2023-02-19T10:51:54;102087.63;;;9.67;100.00
35647;BME280;28680;45.642;13.756;2023-02-19T10:54:34;102080.53;;;9.69;100.00
35647;BME280;28680;45.642;13.756;2023-02-19T10:59:57;102073.84;;;9.63;100.00
35647;BME280;28680;45.642;13.756;2023-02-19T11:02:25;102085.16;;;9.64;100.00
35647;BME280;28680;45.642;13.756;2023-02-19T11:07:54;102071.75;;;9.70;100.00
35647;BME280;28680;45.642;13.756;2023-02-19T11:10:40;102078.50;;;9.74;100.00
35647;BME280;28680;45.642;13.756;2023-02-19T11:13:15;102070.72;;;9.72;100.00
35647;BME280;28680;45.642;13.756;2023-02-19T11:15:51;102057.09;;;9.66;100.00
35647;BME280;28680;45.642;13.756;2023-02-19T11:18:29;102058.72;;;9.68;100.00
35647;BME280;28680;45.642;13.756;2023-02-19T11:21:00;102058.72;;;9.68;100.00
35647;BME280;28680;45.642;13.756;2023-02-19T11:23:36;102056.94;;;9.69;100.00
35647;BME280;28680;45.642;13.756;2023-02-19T11:26:12;102051.28;;;9.76;100.00
35647;BME280;28680;45.642;13.756;2023-02-19T11:28:41;102047.63;;;9.79;100.00
35647;BME280;28680;45.642;13.756;2023-02-19T11:31:28;102046.09;;;9.75;100.00
35647;BME280;28680;45.642;13.756;2023-02-19T11:33:58;102047.63;;;9.79;100.00
35647;BME280;28680;45.642;13.756;2023-02-19T11:36:33;102048.50;;;9.80;100.00
35647;BME280;28680;45.642;13.756;2023-02-19T11:53:27;102031.75;;;9.82;100.00
35647;BME280;28680;45.642;13.756;2023-02-19T11:59:31;102038.59;;;9.85;100.00
35647;BME280;28680;45.642;13.756;2023-02-19T12:07:50;102042.06;;;9.85;100.00
35647;BME280;28680;45.642;13.756;2023-02-19T12:16:32;102033.25;;;9.86;100.00
35647;BME280;28680;45.642;13.756;2023-02-19T12:22:31;102021.84;;;9.87;100.00
35647;BME280;28680;45.642;13.756;2023-02-19T12:44:41;102008.81;;;9.86;100.00
35647;BME280;28680;45.642;13.756;2023-02-19T12:47:27;102010.34;;;9.90;100.00
35647;BME280;28680;45.642;13.756;2023-02-19T12:50:20;102005.94;;;9.90;100.00
35647;BME280;28680;45.642;13.756;2023-02-19T12:53:22;102004.50;;;9.85;100.00
35647;BME280;28680;45.642;13.756;2023-02-19T12:55:51;102002.91;;;9.82;100.00
35647;BME280;28680;45.642;13.756;2023-02-19T12:58:31;102002.28;;;9.77;100.00
35647;BME280;28680;45.642;13.756;2023-02-19T13:00:59;102004.75;;;9.80;100.00
35647;BME280;28680;45.642;13.756;2023-02-19T13:03:38;102000.34;;;9.81;100.00
35647;BME280;28680;45.642;13.756;2023-02-19T13:06:35;102011.72;;;9.81;100.00
35647;BME280;28680;45.642;13.756;2023-02-19T13:09:52;101998.50;;;9.83;100.00
35647;BME280;28680;45.642;13.756;2023-02-19T13:12:32;101996.97;;;9.79;100.00
35647;BME280;28680;45.642;13.756;2023-02-19T13:17:50;101986.94;;;9.87;100.00
35647;BME280;28680;45.642;13.756;2023-02-19T13:20:33;101976.00;;;9.79;100.00
35647;BME280;28680;45.642;13.756;2023-02-19T13:23:30;101967.03;;;9.83;100.00
35647;BME280;28680;45.642;13.756;2023-02-19T13:26:54;101960.34;;;9.77;100.00
35647;BME280;28680;45.642;13.756;2023-02-19T13:32:56;101952.59;;;9.75;100.00
35647;BME280;28680;45.642;13.756;2023-02-19T13:38:35;101948.66;;;9.83;100.00
35647;BME280;28680;45.642;13.756;2023-02-19T13:41:02;101950.03;;;9.90;100.00
35647;BME280;28680;45.642;13.756;2023-02-19T13:43:35;101939.63;;;9.88;100.00
35647;BME280;28680;45.642;13.756;2023-02-19T13:46:08;101931.84;;;9.87;100.00
35647;BME280;28680;45.642;13.756;2023-02-19T13:48:37;101933.19;;;9.94;100.00
35647;BME280;28680;45.642;13.756;2023-02-19T14:04:49;101944.53;;;9.94;100.00
35647;BME280;28680;45.642;13.756;2023-02-19T14:14:49;101943.00;;;9.90;100.00
35647;BME280;28680;45.642;13.756;2023-02-19T14:20:42;101937.19;;;9.85;100.00
35647;BME280;28680;45.642;13.756;2023-02-19T14:22:58;101935.47;;;9.84;100.00
35647;BME280;28680;45.642;13.756;2023-02-19T14:28:24;101929.81;;;9.76;100.00
35647;BME280;28680;45.642;13.756;2023-02-19T14:33:58;101927.38;;;9.73;100.00
35647;BME280;28680;45.642;13.756;2023-02-19T14:39:29;101942.50;;;9.84;100.00
35647;BME280;28680;45.642;13.756;2023-02-19T14:42:04;101941.84;;;9.80;100.00
35647;BME280;28680;45.642;13.756;2023-02-19T14:44:50;101936.66;;;9.79;100.00
35647;BME280;28680;45.642;13.756;2023-02-19T14:47:20;101943.41;;;9.83;100.00
35647;BME280;28680;45.642;13.756;2023-02-19T14:49:56;101935.81;;;9.78;100.00
35647;BME280;28680;45.642;13.756;2023-02-19T14:52:48;101939.38;;;9.77;100.00
35647;BME280;28680;45.642;13.756;2023-02-19T14:55:35;101945.47;;;9.78;100.00
35647;BME280;28680;45.642;13.756;2023-02-19T14:58:28;101953.34;;;9.78;100.00
35647;BME280;28680;45.642;13.756;2023-02-19T15:00:55;101949.09;;;9.75;100.00
35647;BME280;28680;45.642;13.756;2023-02-19T15:03:29;101956.28;;;9.71;100.00
35647;BME280;28680;45.642;13.756;2023-02-19T15:06:11;101967.44;;;9.75;100.00
35647;BME280;28680;45.642;13.756;2023-02-19T15:08:47;101972.69;;;9.75;100.00
35647;BME280;28680;45.642;13.756;2023-02-19T15:11:19;101967.44;;;9.75;100.00
35647;BME280;28680;45.642;13.756;2023-02-19T15:14:02;101963.91;;;9.76;100.00
35647;BME280;28680;45.642;13.756;2023-02-19T15:16:31;101948.09;;;9.78;100.00
35647;BME280;28680;45.642;13.756;2023-02-19T15:18:59;101950.72;;;9.78;100.00
35647;BME280;28680;45.642;13.756;2023-02-19T15:21:28;101944.72;;;9.75;100.00
35647;BME280;28680;45.642;13.756;2023-02-19T15:24:00;101951.84;;;9.73;100.00
35647;BME280;28680;45.642;13.756;2023-02-19T15:26:37;101950.97;;;9.73;100.00
35647;BME280;28680;45.642;13.756;2023-02-19T15:29:15;101955.09;;;9.77;100.00
35647;BME280;28680;45.642;13.756;2023-02-19T15:34:23;101959.09;;;9.68;100.00